Hlavní strana
METAR-TAF:

METAR-TAF

Letiště :

Letiště Seinäjoki

Seinäjoki-Ilmajoki, Finsko

zeměpisná šířka: 62-41-37N, zeměpisná délka: 022-49-55E, výška: 91 m

Aktuální stav počasí

Zpráva byla vytvořena před 25 minutami, v 03:20 UTC
Severní vítr 7 kt, proměnlivý mezi severozápadním a severovýchodním
Teplota 4°C
Vlhkost vzduchu 87%
Tlak 1038 hPa
Viditelnost 10 km a více
Oblačno až skoro zataženo ve výšce 2000 ft
Zataženo ve výšce 2500 ft

METAR: EFSI 180320Z AUTO 36007KT 320V040 9999 BKN020 OVC025 04/02 Q1038

Čas: 05:45 (03:45 UTC)


TAF: chybějící

Stav a předpovědi počasí z více než 4 000 letišť (zprávy METAR a TAF).

Červené a žluté tečky na mapě představují dostupné meteorologické stanice.

Když kurzor umístíte na tečku, zobrazí se název stanice.

Pak kliknutím zobrazíte stav a předpověď počasí.

Chcete-li změnit mapu, kliknutím na zelené tlačítko se znaménkem +mapu přiblížíte, kliknutím na zelené tlačítko se znaménkem – mapu oddálíte a kliknutím na zelené šipky přejdete na sousední mapy.


METAR-TAF: